Time;durP1;ratioP1;P1;durP2;ratioP2;P2;SDS_P1;SDS_P2;PMS_P1;PMS_P2;Temp;Humidity;BMP_temperature;BMP_pressure;BME280_temperature;BME280_humidity;BME280_pressure;Samples;Min_cycle;Max_cycle;Signal;HPM_P1;HPM_P2
2023/10/21 00:00:27;;;;;;;1.77;1.67;;;14.00;99.90;;;;;;4973530;28;20507;-74
2023/10/21 00:02:53;;;;;;;2.33;1.90;;;14.00;99.90;;;;;;4972505;28;20527;-74
2023/10/21 00:05:18;;;;;;;1.57;1.30;;;14.00;99.90;;;;;;4968811;28;20484;-73
2023/10/21 00:07:44;;;;;;;2.40;1.77;;;13.90;99.90;;;;;;4971346;28;20262;-74
2023/10/21 00:10:10;;;;;;;2.03;1.30;;;14.00;99.90;;;;;;4963892;28;20219;-74
2023/10/21 00:12:36;;;;;;;3.63;1.53;;;14.00;99.90;;;;;;4964054;28;20343;-74
2023/10/21 00:15:05;;;;;;;1.93;1.80;;;14.00;99.90;;;;;;4963175;28;20317;-73
2023/10/21 00:17:30;;;;;;;1.20;1.20;;;14.00;99.90;;;;;;4971939;28;20563;-74
2023/10/21 00:19:56;;;;;;;1.73;1.60;;;14.00;99.90;;;;;;4962251;28;20945;-74
2023/10/21 00:22:22;;;;;;;1.63;1.27;;;14.00;99.90;;;;;;4970890;28;20231;-74
2023/10/21 00:24:48;;;;;;;1.67;1.57;;;14.00;99.90;;;;;;4964038;28;20257;-73
2023/10/21 00:27:13;;;;;;;1.53;1.43;;;14.00;99.90;;;;;;4964007;28;20221;-73
2023/10/21 00:29:39;;;;;;;1.40;1.30;;;14.00;99.90;;;;;;4963538;28;20229;-74
2023/10/21 00:32:05;;;;;;;1.50;1.40;;;14.00;99.90;;;;;;4964469;28;20218;-73
2023/10/21 00:34:31;;;;;;;2.53;1.73;;;14.00;99.90;;;;;;4963668;28;20226;-74
2023/10/21 00:36:57;;;;;;;2.50;1.60;;;14.00;99.90;;;;;;4968468;28;20466;-75
2023/10/21 00:39:23;;;;;;;1.43;1.33;;;14.00;99.90;;;;;;4962393;28;20494;-73
2023/10/21 00:41:48;;;;;;;1.47;1.37;;;14.00;99.90;;;;;;4963035;28;20715;-74
2023/10/21 00:44:15;;;;;;;2.67;1.90;;;14.00;99.90;;;;;;4964867;28;20304;-74
2023/10/21 00:46:41;;;;;;;1.80;1.70;;;14.00;99.90;;;;;;4971075;28;20465;-74
2023/10/21 00:49:07;;;;;;;1.73;1.37;;;14.00;99.90;;;;;;4961168;28;20223;-73
2023/10/21 00:51:33;;;;;;;2.07;1.50;;;13.90;99.90;;;;;;4964079;28;20588;-73
2023/10/21 00:54:01;;;;;;;2.03;1.90;;;13.90;99.90;;;;;;4963009;28;20359;-74
2023/10/21 00:56:27;;;;;;;1.50;1.40;;;13.90;99.90;;;;;;4960608;28;21128;-74
2023/10/21 00:58:53;;;;;;;2.07;1.87;;;13.90;99.90;;;;;;4971708;28;20557;-74
2023/10/21 01:01:19;;;;;;;2.20;1.70;;;14.00;99.90;;;;;;4961402;28;20519;-74
2023/10/21 01:03:45;;;;;;;2.10;1.90;;;14.00;99.90;;;;;;4959932;28;20473;-74
2023/10/21 01:06:11;;;;;;;2.20;1.53;;;13.90;99.90;;;;;;4953527;28;20885;-73
2023/10/21 01:08:41;;;;;;;3.63;1.93;;;13.90;99.90;;;;;;4984323;28;20544;-74
2023/10/21 01:11:08;;;;;;;1.53;1.43;;;13.90;99.90;;;;;;4983700;28;20470;-74
2023/10/21 01:13:34;;;;;;;1.67;1.57;;;13.90;99.90;;;;;;4986656;28;20484;-74
2023/10/21 01:16:00;;;;;;;1.70;1.60;;;13.90;99.90;;;;;;4968031;28;20494;-75
2023/10/21 01:18:29;;;;;;;1.37;1.13;;;13.90;99.90;;;;;;4984522;28;20226;-75
2023/10/21 01:20:54;;;;;;;1.70;1.60;;;13.90;99.90;;;;;;4955533;28;20592;-74
2023/10/21 01:23:20;;;;;;;1.83;1.73;;;13.90;99.90;;;;;;4956091;28;20509;-75
2023/10/21 01:25:46;;;;;;;2.30;1.73;;;13.90;99.90;;;;;;4956999;28;20244;-75
2023/10/21 01:28:14;;;;;;;1.60;1.23;;;13.90;99.90;;;;;;4956316;28;20222;-74
2023/10/21 01:30:41;;;;;;;3.47;1.60;;;13.90;99.90;;;;;;4958107;28;20242;-74
2023/10/21 01:33:07;;;;;;;2.10;1.37;;;13.90;99.90;;;;;;4959818;28;20984;-74
2023/10/21 01:35:32;;;;;;;1.60;1.50;;;13.90;99.90;;;;;;4990911;28;20473;-74
2023/10/21 01:37:58;;;;;;;1.90;1.23;;;13.90;99.90;;;;;;4980471;28;20221;-75
2023/10/21 01:40:23;;;;;;;0.90;0.90;;;13.90;99.90;;;;;;4958862;28;20229;-75
2023/10/21 01:42:49;;;;;;;0.70;0.70;;;13.90;99.90;;;;;;4971190;28;20260;-73
2023/10/21 01:45:15;;;;;;;3.13;0.70;;;13.90;99.90;;;;;;4959451;28;20262;-74
2023/10/21 01:47:41;;;;;;;0.70;0.70;;;13.90;99.90;;;;;;4956369;28;20301;-75
2023/10/21 01:50:07;;;;;;;0.50;0.43;;;14.00;99.90;;;;;;4963642;28;20476;-74
2023/10/21 01:52:37;;;;;;;0.50;0.50;;;14.00;99.90;;;;;;4972156;28;20225;-74
2023/10/21 01:55:04;;;;;;;0.80;0.30;;;14.00;99.90;;;;;;4958119;28;20572;-75
2023/10/21 01:57:32;;;;;;;0.90;0.40;;;14.00;99.90;;;;;;4946822;28;20473;-74
2023/10/21 02:00:04;;;;;;;0.40;0.30;;;14.10;99.90;;;;;;4984958;28;20468;-75
2023/10/21 02:02:38;;;;;;;0.40;0.40;;;14.10;99.90;;;;;;4946883;28;20469;-74
2023/10/21 02:05:06;;;;;;;0.40;0.20;;;14.10;99.90;;;;;;4966667;28;20458;-73
2023/10/21 02:07:37;;;;;;;0.40;0.30;;;14.10;99.90;;;;;;4962632;28;20329;-74
2023/10/21 02:10:04;;;;;;;0.40;0.30;;;14.10;99.90;;;;;;4957773;28;20499;-73
2023/10/21 02:12:30;;;;;;;0.40;0.30;;;14.10;99.90;;;;;;4959344;28;20582;-75
2023/10/21 02:14:56;;;;;;;4.90;0.47;;;14.10;99.90;;;;;;4956880;28;20473;-74
2023/10/21 02:17:22;;;;;;;0.40;0.30;;;14.10;99.90;;;;;;4955401;28;20507;-73
2023/10/21 02:19:58;;;;;;;0.40;0.30;;;14.10;99.90;;;;;;4953922;28;20232;-73
2023/10/21 02:22:25;;;;;;;0.50;0.30;;;14.10;99.90;;;;;;4958067;28;20230;-73
2023/10/21 02:24:53;;;;;;;1.37;0.40;;;14.10;99.90;;;;;;4960109;28;21077;-74
2023/10/21 02:27:20;;;;;;;0.40;0.30;;;14.10;99.90;;;;;;4963448;28;20473;-74
2023/10/21 02:29:46;;;;;;;0.40;0.30;;;14.10;99.90;;;;;;4959931;28;20466;-75
2023/10/21 02:32:11;;;;;;;0.40;0.30;;;14.10;99.90;;;;;;4965688;28;20237;-73
2023/10/21 02:34:37;;;;;;;0.57;0.37;;;14.10;99.90;;;;;;4982476;28;20299;-73
2023/10/21 02:37:03;;;;;;;0.50;0.30;;;14.10;99.90;;;;;;4961497;28;20238;-74
2023/10/21 02:39:29;;;;;;;0.70;0.40;;;14.10;99.90;;;;;;4964381;28;20222;-74
2023/10/21 02:41:55;;;;;;;0.40;0.30;;;14.10;99.90;;;;;;4986676;28;20301;-74
2023/10/21 02:44:21;;;;;;;0.40;0.30;;;14.10;99.90;;;;;;4956364;28;20227;-73
2023/10/21 02:46:48;;;;;;;0.50;0.30;;;14.10;99.90;;;;;;4942254;28;20478;-74
2023/10/21 02:49:14;;;;;;;0.50;0.40;;;14.00;99.90;;;;;;4973966;28;20215;-73
2023/10/21 02:51:41;;;;;;;2.10;1.90;;;14.00;99.90;;;;;;4963738;28;20539;-73
2023/10/21 02:54:07;;;;;;;0.40;0.33;;;14.00;99.90;;;;;;4967682;28;20222;-74
2023/10/21 02:56:34;;;;;;;0.40;0.30;;;14.00;99.90;;;;;;4964112;28;20473;-74
2023/10/21 02:59:00;;;;;;;0.40;0.40;;;14.00;99.90;;;;;;4978709;28;20994;-74
2023/10/21 03:01:26;;;;;;;0.40;0.37;;;14.00;99.90;;;;;;4958419;28;20260;-74
2023/10/21 03:03:52;;;;;;;0.90;0.40;;;14.00;99.90;;;;;;4942856;28;20605;-73
2023/10/21 03:06:19;;;;;;;1.63;0.40;;;13.90;99.90;;;;;;4954752;28;20888;-73
2023/10/21 03:08:48;;;;;;;0.50;0.40;;;13.90;99.90;;;;;;4957112;28;20584;-73
2023/10/21 03:11:14;;;;;;;0.40;0.30;;;14.00;99.90;;;;;;4960350;28;20899;-74
2023/10/21 03:13:40;;;;;;;0.40;0.40;;;14.00;99.90;;;;;;4940651;28;20475;-74
2023/10/21 03:16:07;;;;;;;0.40;0.40;;;14.00;99.90;;;;;;4954350;28;20357;-74
2023/10/21 03:18:33;;;;;;;0.73;0.40;;;13.90;99.90;;;;;;4951143;28;21073;-74
2023/10/21 03:20:59;;;;;;;0.40;0.30;;;13.90;99.90;;;;;;4953405;28;20949;-73
2023/10/21 03:23:24;;;;;;;0.60;0.30;;;13.80;99.90;;;;;;4952316;28;20507;-75
2023/10/21 03:25:57;;;;;;;0.40;0.40;;;13.90;99.90;;;;;;4959385;28;20360;-73
2023/10/21 03:28:24;;;;;;;0.50;0.50;;;13.90;99.90;;;;;;4957050;28;20221;-74
2023/10/21 03:30:50;;;;;;;0.50;0.50;;;13.80;99.90;;;;;;4968289;28;20486;-72
2023/10/21 03:33:16;;;;;;;0.40;0.40;;;13.80;99.90;;;;;;4947285;28;20476;-75
2023/10/21 03:35:52;;;;;;;2.83;0.60;;;13.90;99.90;;;;;;4986373;28;20467;-74
2023/10/21 03:38:18;;;;;;;0.50;0.50;;;13.80;99.90;;;;;;4977822;28;21092;-73
2023/10/21 03:40:53;;;;;;;1.83;0.50;;;13.80;99.90;;;;;;4965541;28;20469;-75
2023/10/21 03:43:18;;;;;;;0.50;0.50;;;13.80;99.90;;;;;;4963915;28;20503;-75
2023/10/21 03:45:44;;;;;;;0.40;0.40;;;13.80;99.90;;;;;;4980884;28;20480;-74
2023/10/21 03:48:10;;;;;;;0.60;0.50;;;13.80;99.90;;;;;;4971759;28;20233;-74
2023/10/21 03:50:35;;;;;;;3.10;0.90;;;13.80;99.90;;;;;;4958469;28;20257;-74
2023/10/21 03:53:01;;;;;;;0.60;0.57;;;13.80;99.90;;;;;;4970324;28;20226;-74
2023/10/21 03:55:27;;;;;;;1.00;1.00;;;13.80;99.90;;;;;;4957874;28;20345;-74
2023/10/21 03:57:52;;;;;;;0.83;0.83;;;13.80;99.90;;;;;;4962801;28;20274;-75
2023/10/21 04:00:18;;;;;;;0.53;0.53;;;13.90;99.90;;;;;;4955369;28;20312;-72
2023/10/21 04:02:44;;;;;;;1.00;0.90;;;13.90;99.90;;;;;;4959738;28;20273;-74
2023/10/21 04:05:09;;;;;;;0.80;0.80;;;13.90;99.90;;;;;;4958205;28;20268;-73
2023/10/21 04:07:35;;;;;;;1.07;1.07;;;13.90;99.90;;;;;;4979155;28;20222;-74
2023/10/21 04:10:01;;;;;;;0.80;0.80;;;13.90;99.90;;;;;;4967121;28;20221;-74
2023/10/21 04:12:27;;;;;;;1.20;1.20;;;13.90;99.90;;;;;;4977100;28;20232;-74
2023/10/21 04:14:52;;;;;;;1.27;1.10;;;13.90;99.90;;;;;;4982471;28;20253;-73
2023/10/21 04:17:18;;;;;;;1.67;1.33;;;13.90;99.90;;;;;;4980033;28;20330;-74
2023/10/21 04:19:44;;;;;;;2.10;1.10;;;13.90;99.90;;;;;;4983951;28;20719;-74
2023/10/21 04:22:10;;;;;;;1.10;1.00;;;14.00;99.90;;;;;;4982068;28;20300;-75
2023/10/21 04:24:35;;;;;;;1.07;1.00;;;14.00;99.90;;;;;;4977264;28;20228;-74
2023/10/21 04:27:01;;;;;;;1.10;1.00;;;14.00;99.90;;;;;;4978575;28;20244;-74
2023/10/21 04:29:26;;;;;;;1.53;0.90;;;14.00;99.90;;;;;;4961818;28;20257;-73
2023/10/21 04:31:52;;;;;;;0.70;0.70;;;14.00;99.90;;;;;;4981484;28;20220;-74
2023/10/21 04:34:18;;;;;;;0.60;0.60;;;14.00;99.90;;;;;;4978159;28;20244;-74
2023/10/21 04:36:43;;;;;;;10.17;1.10;;;14.00;99.90;;;;;;4977061;28;20669;-74
2023/10/21 04:39:09;;;;;;;0.50;0.50;;;14.00;99.90;;;;;;4980294;28;20348;-76
2023/10/21 04:41:35;;;;;;;0.73;0.70;;;14.00;99.90;;;;;;4977172;28;20364;-74
2023/10/21 04:44:00;;;;;;;1.47;1.03;;;14.00;99.90;;;;;;4981003;28;20296;-75
2023/10/21 04:46:26;;;;;;;0.80;0.70;;;14.00;99.90;;;;;;4976693;28;20233;-74
2023/10/21 04:48:51;;;;;;;0.73;0.73;;;13.90;99.90;;;;;;4979798;28;20231;-74
2023/10/21 04:51:18;;;;;;;0.70;0.70;;;13.80;99.90;;;;;;4980643;28;20225;-74
2023/10/21 04:53:44;;;;;;;2.63;0.87;;;13.90;99.90;;;;;;4977002;28;20224;-74
2023/10/21 04:56:09;;;;;;;1.00;0.90;;;13.90;99.90;;;;;;4980152;28;20554;-73
2023/10/21 04:58:35;;;;;;;1.33;0.70;;;13.80;99.90;;;;;;4978492;28;20225;-73
2023/10/21 05:01:01;;;;;;;0.93;0.83;;;13.80;99.90;;;;;;4980867;28;20226;-74
2023/10/21 05:03:26;;;;;;;0.90;0.90;;;13.80;99.90;;;;;;4976924;28;20245;-74
2023/10/21 05:05:52;;;;;;;0.70;0.70;;;13.80;99.90;;;;;;4978754;28;20253;-74
2023/10/21 05:08:17;;;;;;;0.93;0.93;;;13.80;99.90;;;;;;4978871;28;20223;-74
2023/10/21 05:10:43;;;;;;;0.97;0.90;;;13.90;99.90;;;;;;4976659;28;20239;-74
2023/10/21 05:13:09;;;;;;;1.43;0.83;;;13.80;99.90;;;;;;4980366;28;20222;-74
2023/10/21 05:15:36;;;;;;;0.87;0.87;;;13.80;99.90;;;;;;4978097;28;20944;-74
2023/10/21 05:18:03;;;;;;;0.87;0.87;;;13.80;99.90;;;;;;4981326;28;20228;-75
2023/10/21 05:20:29;;;;;;;1.83;1.40;;;13.80;99.90;;;;;;4960500;28;20468;-74
2023/10/21 05:22:54;;;;;;;1.10;1.10;;;13.70;99.90;;;;;;4980283;28;21007;-73
2023/10/21 05:25:20;;;;;;;1.27;1.17;;;13.80;99.90;;;;;;4979914;28;20351;-75
2023/10/21 05:27:45;;;;;;;1.00;1.00;;;13.80;99.90;;;;;;4977805;28;20283;-75
2023/10/21 05:30:12;;;;;;;1.43;1.33;;;13.80;99.90;;;;;;4979735;28;20751;-74
2023/10/21 05:32:38;;;;;;;3.17;1.40;;;13.80;99.90;;;;;;4989238;28;20229;-74
2023/10/21 05:35:07;;;;;;;1.33;1.03;;;13.80;99.90;;;;;;4979209;28;20504;-73
2023/10/21 05:37:33;;;;;;;0.97;0.97;;;13.80;99.90;;;;;;4974620;28;20225;-74
2023/10/21 05:39:59;;;;;;;1.20;1.13;;;13.70;99.90;;;;;;4979019;28;20471;-75
2023/10/21 05:42:25;;;;;;;1.23;1.10;;;13.80;99.90;;;;;;4977347;28;20465;-74
2023/10/21 05:44:51;;;;;;;1.20;1.10;;;13.80;99.90;;;;;;4964981;28;20225;-74
2023/10/21 05:47:16;;;;;;;1.47;1.33;;;13.80;99.90;;;;;;4989141;28;20244;-74
2023/10/21 05:49:42;;;;;;;1.10;1.00;;;13.80;99.90;;;;;;4977762;28;20231;-74
2023/10/21 05:52:08;;;;;;;1.10;1.07;;;13.80;99.90;;;;;;4979732;28;20348;-74
2023/10/21 05:54:33;;;;;;;1.47;1.37;;;13.80;99.90;;;;;;4975023;28;20225;-74
2023/10/21 05:56:59;;;;;;;1.10;1.10;;;13.70;99.90;;;;;;4978837;28;20240;-74
2023/10/21 05:59:25;;;;;;;1.20;1.10;;;13.70;99.90;;;;;;4975700;28;20228;-74
2023/10/21 06:01:51;;;;;;;0.90;0.90;;;13.70;99.90;;;;;;4971756;28;20512;-74
2023/10/21 06:04:16;;;;;;;1.10;1.00;;;13.70;99.90;;;;;;4978728;28;20225;-75
2023/10/21 06:06:42;;;;;;;1.47;1.10;;;13.70;99.90;;;;;;4977889;28;20244;-75
2023/10/21 06:09:09;;;;;;;0.97;0.70;;;13.60;99.90;;;;;;4967113;28;20225;-74
2023/10/21 06:11:35;;;;;;;0.83;0.83;;;13.60;99.90;;;;;;4949275;28;20237;-74
2023/10/21 06:14:01;;;;;;;0.80;0.80;;;13.60;99.90;;;;;;4952277;28;20501;-75
2023/10/21 06:16:27;;;;;;;0.70;0.70;;;13.60;99.90;;;;;;4948955;28;20484;-75
2023/10/21 06:18:53;;;;;;;0.80;0.70;;;13.60;99.90;;;;;;4952616;28;20230;-74
2023/10/21 06:21:18;;;;;;;1.10;0.77;;;13.60;99.90;;;;;;4983362;28;20227;-73
2023/10/21 06:23:44;;;;;;;0.83;0.73;;;13.60;99.90;;;;;;4983314;28;20325;-74
2023/10/21 06:26:11;;;;;;;1.20;0.70;;;13.60;99.90;;;;;;4958269;28;20237;-74
2023/10/21 06:28:38;;;;;;;0.87;0.63;;;13.50;99.90;;;;;;4978612;28;20588;-73
2023/10/21 06:31:04;;;;;;;0.60;0.50;;;13.50;99.90;;;;;;4971961;28;20461;-74
2023/10/21 06:33:30;;;;;;;0.77;0.40;;;13.50;99.90;;;;;;4970782;28;20472;-73
2023/10/21 06:35:56;;;;;;;0.80;0.80;;;13.50;99.90;;;;;;4957379;28;20494;-72
2023/10/21 06:38:21;;;;;;;1.80;0.60;;;13.50;99.90;;;;;;4978612;28;20691;-75
2023/10/21 06:40:47;;;;;;;0.50;0.40;;;13.40;99.90;;;;;;4971725;28;20664;-74
2023/10/21 06:43:12;;;;;;;0.70;0.60;;;13.40;99.90;;;;;;4971956;28;20328;-74
2023/10/21 06:45:38;;;;;;;0.70;0.70;;;13.40;99.90;;;;;;4970633;28;20222;-74
2023/10/21 06:48:04;;;;;;;0.40;0.40;;;13.30;99.90;;;;;;4963762;28;20210;-73
2023/10/21 06:50:31;;;;;;;0.70;0.70;;;13.30;99.90;;;;;;4985278;28;20218;-74
2023/10/21 06:52:57;;;;;;;0.50;0.40;;;13.30;99.90;;;;;;4974987;28;20471;-74
2023/10/21 06:55:22;;;;;;;2.47;0.90;;;13.40;99.90;;;;;;4971244;28;21046;-74
2023/10/21 06:57:51;;;;;;;0.70;0.70;;;13.40;99.90;;;;;;4976044;28;20338;-74
2023/10/21 07:00:16;;;;;;;0.70;0.50;;;13.50;99.90;;;;;;4966169;28;20336;-73
2023/10/21 07:02:42;;;;;;;0.70;0.40;;;13.50;99.90;;;;;;4960681;28;20468;-74
2023/10/21 07:05:11;;;;;;;0.70;0.63;;;13.60;99.90;;;;;;4963008;28;20296;-72
2023/10/21 07:07:38;;;;;;;0.60;0.60;;;13.60;99.90;;;;;;4946588;28;20310;-75
2023/10/21 07:10:04;;;;;;;1.10;0.40;;;13.60;99.90;;;;;;4985261;28;20460;-74
2023/10/21 07:12:30;;;;;;;2.83;0.70;;;13.70;99.90;;;;;;4965607;28;20457;-74
2023/10/21 07:14:56;;;;;;;0.60;0.40;;;13.70;99.90;;;;;;4962394;28;20464;-75
2023/10/21 07:17:21;;;;;;;0.87;0.57;;;13.70;99.90;;;;;;4967101;28;20711;-75
2023/10/21 07:19:47;;;;;;;1.83;0.50;;;13.80;99.90;;;;;;4963052;28;20222;-73
2023/10/21 07:22:13;;;;;;;0.70;0.60;;;13.70;99.90;;;;;;4965693;28;20231;-73
2023/10/21 07:24:38;;;;;;;0.80;0.67;;;13.80;99.90;;;;;;4959770;28;20337;-73
2023/10/21 07:27:04;;;;;;;1.53;0.77;;;13.80;99.90;;;;;;4963108;28;20229;-74
2023/10/21 07:29:31;;;;;;;0.70;0.50;;;13.80;99.90;;;;;;4960323;28;20688;-73
2023/10/21 07:31:57;;;;;;;0.50;0.40;;;13.80;99.90;;;;;;4961017;28;20252;-73
2023/10/21 07:34:23;;;;;;;2.03;0.50;;;13.80;99.90;;;;;;4960980;28;21137;-74
2023/10/21 07:36:48;;;;;;;0.40;0.33;;;13.80;99.90;;;;;;4962872;28;20290;-75
2023/10/21 07:39:14;;;;;;;0.97;0.60;;;13.90;99.90;;;;;;4963316;28;20317;-75
2023/10/21 07:41:43;;;;;;;0.73;0.60;;;13.90;99.90;;;;;;4975758;28;20228;-75
2023/10/21 07:44:09;;;;;;;1.03;0.50;;;14.00;99.90;;;;;;4942112;28;20888;-74
2023/10/21 07:46:34;;;;;;;0.60;0.60;;;14.00;99.90;;;;;;4950287;28;20498;-74
2023/10/21 07:49:00;;;;;;;2.10;0.67;;;14.00;99.90;;;;;;4968033;28;20236;-73
2023/10/21 07:51:29;;;;;;;1.53;0.67;;;14.00;99.90;;;;;;4959971;28;20233;-74
2023/10/21 07:53:55;;;;;;;2.80;0.80;;;14.00;99.90;;;;;;4976073;28;20291;-74
2023/10/21 07:56:20;;;;;;;1.63;0.67;;;14.00;99.90;;;;;;4977551;28;20519;-74
2023/10/21 07:58:46;;;;;;;2.03;0.60;;;14.10;99.90;;;;;;4980196;28;20233;-74
2023/10/21 08:01:12;;;;;;;0.60;0.57;;;14.10;99.90;;;;;;4980273;28;20229;-74
2023/10/21 08:03:37;;;;;;;2.97;0.67;;;14.20;99.90;;;;;;4979192;28;20228;-74
2023/10/21 08:06:03;;;;;;;1.43;1.00;;;14.30;99.90;;;;;;4979530;28;20240;-74
2023/10/21 08:08:29;;;;;;;1.03;0.63;;;14.30;99.90;;;;;;4977895;28;20221;-75
2023/10/21 08:11:13;;;;;;;1.07;0.60;;;14.40;99.90;;;;;;4975433;28;20299;-75
2023/10/21 08:13:38;;;;;;;0.80;0.80;;;14.40;99.90;;;;;;4977997;28;20225;-75
2023/10/21 08:16:04;;;;;;;3.33;0.90;;;14.50;99.90;;;;;;4979620;28;20486;-75
2023/10/21 08:18:30;;;;;;;2.00;0.80;;;14.60;99.90;;;;;;4991360;28;20217;-74
2023/10/21 08:20:55;;;;;;;1.30;0.73;;;14.70;99.90;;;;;;4978952;28;20275;-73
2023/10/21 08:23:21;;;;;;;1.60;0.60;;;14.70;99.90;;;;;;4962416;28;20233;-74
2023/10/21 08:25:47;;;;;;;0.87;0.70;;;14.70;99.90;;;;;;4979151;28;20273;-74
2023/10/21 08:28:12;;;;;;;1.27;0.67;;;14.70;99.90;;;;;;4976464;28;20244;-74
2023/10/21 08:30:38;;;;;;;1.00;0.67;;;14.80;99.90;;;;;;4975221;28;20318;-73
2023/10/21 08:33:08;;;;;;;1.20;0.70;;;14.90;99.90;;;;;;4973187;28;20277;-73
2023/10/21 08:35:34;;;;;;;0.97;0.80;;;14.90;99.90;;;;;;4982853;28;20728;-74
2023/10/21 08:38:00;;;;;;;0.73;0.70;;;14.80;99.90;;;;;;4982572;28;20538;-75
2023/10/21 08:40:25;;;;;;;1.67;0.73;;;14.90;99.90;;;;;;4981329;28;20473;-74
2023/10/21 08:42:51;;;;;;;3.40;0.70;;;14.90;99.90;;;;;;4985542;28;20536;-74
2023/10/21 08:45:19;;;;;;;1.43;0.60;;;14.90;99.90;;;;;;4983825;28;20254;-74
2023/10/21 08:47:45;;;;;;;0.60;0.60;;;14.90;99.90;;;;;;4986251;28;20790;-74
2023/10/21 08:50:13;;;;;;;2.00;0.73;;;14.90;99.90;;;;;;4984865;28;21275;-74
2023/10/21 08:52:40;;;;;;;1.70;0.50;;;15.00;99.90;;;;;;4983242;28;20462;-74
2023/10/21 08:55:06;;;;;;;0.97;0.70;;;14.90;99.90;;;;;;4984714;28;21099;-75
2023/10/21 08:57:36;;;;;;;2.80;0.90;;;14.90;99.90;;;;;;4983542;28;20572;-73
2023/10/21 09:00:05;;;;;;;1.67;0.80;;;14.90;99.90;;;;;;4986422;28;20471;-74
2023/10/21 09:02:30;;;;;;;2.73;0.90;;;14.90;99.90;;;;;;4985614;28;20674;-75
2023/10/21 09:04:56;;;;;;;0.70;0.60;;;14.90;99.90;;;;;;4985972;28;20475;-73
2023/10/21 09:07:22;;;;;;;3.50;0.70;;;15.00;99.90;;;;;;4972490;28;20262;-74
2023/10/21 09:09:48;;;;;;;2.10;0.80;;;15.20;99.90;;;;;;4955431;28;20226;-74
2023/10/21 09:12:14;;;;;;;1.60;0.70;;;15.30;99.90;;;;;;4990180;28;20236;-74
2023/10/21 09:14:56;;;;;;;3.70;0.87;;;15.40;99.90;;;;;;4956988;28;20475;-75
2023/10/21 09:17:38;;;;;;;1.30;0.70;;;15.50;99.90;;;;;;4963201;28;21059;-74
2023/10/21 09:20:09;;;;;;;1.00;0.60;;;15.50;99.90;;;;;;4965847;28;20469;-73
2023/10/21 09:22:36;;;;;;;0.60;0.50;;;15.50;99.90;;;;;;4961934;28;20482;-75
2023/10/21 09:25:15;;;;;;;1.37;0.80;;;15.60;99.90;;;;;;4967009;28;20480;-75
2023/10/21 09:27:45;;;;;;;1.63;0.70;;;15.60;99.90;;;;;;4962246;28;20603;-74
2023/10/21 09:30:19;;;;;;;0.87;0.73;;;15.60;99.90;;;;;;4965431;28;20469;-75
2023/10/21 09:32:46;;;;;;;0.70;0.67;;;15.60;99.90;;;;;;4963101;28;20493;-75
2023/10/21 09:35:29;;;;;;;0.90;0.70;;;15.60;99.90;;;;;;4972697;28;20465;-74
2023/10/21 09:37:54;;;;;;;2.07;1.37;;;15.70;99.90;;;;;;4983549;28;20582;-75
2023/10/21 09:40:21;;;;;;;0.97;0.60;;;15.80;99.90;;;;;;4981844;28;20554;-74
2023/10/21 09:42:49;;;;;;;1.80;0.90;;;15.90;99.90;;;;;;4968034;28;20221;-75
2023/10/21 09:45:18;;;;;;;0.70;0.70;;;16.00;99.90;;;;;;4962749;28;20487;-74
2023/10/21 09:47:45;;;;;;;1.33;1.03;;;16.20;99.90;;;;;;4978808;28;20567;-74
2023/10/21 09:50:13;;;;;;;4.83;0.80;;;16.30;99.90;;;;;;4966754;28;20584;-75
2023/10/21 09:52:48;;;;;;;0.80;0.80;;;16.50;99.90;;;;;;4964086;28;20469;-75
2023/10/21 09:55:17;;;;;;;2.70;0.80;;;16.60;99.90;;;;;;4962027;28;20472;-74
2023/10/21 09:57:44;;;;;;;1.00;0.67;;;16.60;99.90;;;;;;4963919;28;20452;-75
2023/10/21 10:00:11;;;;;;;0.90;0.90;;;16.80;99.90;;;;;;4993189;28;20469;-75
2023/10/21 10:02:37;;;;;;;1.67;0.93;;;16.80;99.90;;;;;;4945259;28;20957;-75
2023/10/21 10:05:08;;;;;;;1.70;0.90;;;16.80;99.90;;;;;;4963594;28;20620;-75
2023/10/21 10:07:39;;;;;;;2.83;1.00;;;16.70;99.90;;;;;;4960433;28;20540;-75
2023/10/21 10:10:07;;;;;;;5.03;1.00;;;16.60;99.90;;;;;;4965657;28;20504;-75
2023/10/21 10:12:40;;;;;;;3.77;1.50;;;16.50;99.90;;;;;;4964784;28;20585;-74
2023/10/21 10:15:37;;;;;;;1.00;0.80;;;16.40;99.90;;;;;;4965032;28;21098;-74
2023/10/21 10:18:19;;;;;;;0.90;0.90;;;16.40;99.90;;;;;;4976776;28;20471;-73
2023/10/21 10:20:49;;;;;;;4.03;1.07;;;16.40;99.90;;;;;;5001463;28;20474;-74
2023/10/21 10:23:17;;;;;;;2.17;1.27;;;16.50;99.90;;;;;;4971460;28;20472;-75
2023/10/21 10:25:44;;;;;;;3.57;1.30;;;16.60;99.90;;;;;;4976563;28;20475;-74
2023/10/21 10:28:10;;;;;;;3.70;1.10;;;16.70;99.90;;;;;;4976044;28;20457;-74
2023/10/21 10:30:43;;;;;;;1.90;1.00;;;16.70;99.90;;;;;;4967770;28;20491;-74
2023/10/21 10:33:15;;;;;;;0.80;0.80;;;16.60;99.90;;;;;;4965952;28;20226;-74
2023/10/21 10:35:48;;;;;;;4.33;1.80;;;16.60;99.90;;;;;;4971726;28;20592;-74
2023/10/21 10:38:25;;;;;;;3.30;2.20;;;16.70;99.90;;;;;;4968069;28;20524;-74
2023/10/21 10:40:59;;;;;;;2.30;2.10;;;16.70;99.90;;;;;;4975955;28;20507;-74
2023/10/21 10:43:28;;;;;;;3.03;1.83;;;16.80;99.90;;;;;;4987279;28;20510;-72
2023/10/21 10:45:53;;;;;;;2.47;1.53;;;16.70;99.90;;;;;;4988539;28;20583;-76
2023/10/21 10:48:20;;;;;;;1.90;1.73;;;16.70;99.90;;;;;;4979446;28;20460;-74
2023/10/21 10:50:46;;;;;;;3.47;1.20;;;16.60;99.90;;;;;;4985382;28;20778;-74
2023/10/21 10:53:12;;;;;;;1.40;1.30;;;16.50;99.90;;;;;;4987743;28;20463;-75
2023/10/21 10:55:41;;;;;;;2.47;1.10;;;16.60;99.90;;;;;;4976159;28;20575;-75
2023/10/21 10:58:07;;;;;;;2.80;1.13;;;16.60;99.90;;;;;;4988778;28;20475;-74
2023/10/21 11:00:32;;;;;;;2.93;0.90;;;16.70;99.90;;;;;;4975391;28;20505;-76
2023/10/21 11:02:59;;;;;;;1.73;1.07;;;16.80;99.90;;;;;;4958486;28;20461;-74
2023/10/21 11:05:25;;;;;;;1.10;1.00;;;16.70;99.90;;;;;;4957802;28;20234;-74
2023/10/21 11:07:52;;;;;;;1.37;0.90;;;16.80;99.90;;;;;;4956312;28;20591;-74
2023/10/21 11:10:22;;;;;;;1.37;0.90;;;16.80;99.90;;;;;;4990488;28;20322;-77
2023/10/21 11:12:52;;;;;;;2.10;1.13;;;17.00;99.90;;;;;;4976222;28;21070;-74
2023/10/21 11:15:19;;;;;;;1.20;1.10;;;17.00;99.90;;;;;;4974656;28;20469;-71
2023/10/21 11:17:50;;;;;;;5.70;1.10;;;17.00;99.90;;;;;;4957116;28;20875;-74
2023/10/21 11:20:17;;;;;;;1.97;1.53;;;17.00;99.90;;;;;;4973209;28;21224;-74
2023/10/21 11:22:42;;;;;;;1.60;0.87;;;16.80;99.90;;;;;;4973323;28;20917;-75
2023/10/21 11:25:09;;;;;;;1.80;1.07;;;16.70;99.90;;;;;;4939872;28;20501;-74
2023/10/21 11:27:37;;;;;;;5.40;1.80;;;16.70;99.90;;;;;;4955540;28;20240;-74
2023/10/21 11:30:09;;;;;;;1.23;0.80;;;16.70;99.90;;;;;;4955647;28;20485;-74
2023/10/21 11:32:37;;;;;;;2.10;1.00;;;16.80;99.90;;;;;;4971873;28;21237;-74
2023/10/21 11:35:04;;;;;;;1.33;1.03;;;16.90;99.90;;;;;;4960696;28;20477;-74
2023/10/21 11:37:30;;;;;;;3.57;1.27;;;16.90;99.90;;;;;;4969057;28;20475;-74
2023/10/21 11:39:57;;;;;;;1.77;1.20;;;16.90;99.90;;;;;;4977300;28;20478;-73
2023/10/21 11:42:23;;;;;;;1.90;1.00;;;16.80;99.90;;;;;;4991263;28;20547;-75
2023/10/21 11:45:00;;;;;;;2.60;1.27;;;16.90;99.90;;;;;;4992022;28;20582;-74
2023/10/21 11:47:27;;;;;;;2.13;1.00;;;17.00;99.90;;;;;;4986121;28;20237;-75
2023/10/21 11:49:57;;;;;;;6.00;1.67;;;17.10;99.90;;;;;;4948874;28;20496;-74
2023/10/21 11:52:27;;;;;;;4.43;1.13;;;17.20;99.90;;;;;;4961003;28;20469;-74
2023/10/21 11:57:46;;;;;;;;;;;;;;;;;;;;;
2023/10/21 12:42:49;;;;;;;1.47;0.97;;;17.30;99.90;;;;;;4981089;28;20507;-74
2023/10/21 12:45:20;;;;;;;1.83;1.07;;;17.30;99.90;;;;;;4993187;28;20480;-74
2023/10/21 12:47:49;;;;;;;2.13;1.07;;;17.40;99.90;;;;;;4978505;28;20479;-73
2023/10/21 12:50:16;;;;;;;1.57;1.00;;;17.70;99.90;;;;;;4972144;28;20526;-74
2023/10/21 12:52:47;;;;;;;1.00;1.00;;;17.70;99.90;;;;;;4969896;28;20476;-72
2023/10/21 12:55:14;;;;;;;2.60;0.90;;;17.70;99.90;;;;;;4959476;28;20604;-74
2023/10/21 12:57:43;;;;;;;3.20;1.10;;;17.70;99.90;;;;;;4967802;28;20483;-73
2023/10/21 13:00:09;;;;;;;2.00;0.80;;;17.80;99.90;;;;;;4967392;28;20483;-74
2023/10/21 13:02:36;;;;;;;4.00;1.00;;;17.60;99.90;;;;;;4946848;28;20481;-74
2023/10/21 13:05:04;;;;;;;1.37;0.97;;;17.60;99.90;;;;;;4965593;28;20579;-74
2023/10/21 13:07:31;;;;;;;2.70;1.10;;;17.60;99.90;;;;;;4979464;28;20485;-74
2023/10/21 13:09:58;;;;;;;1.57;1.20;;;17.60;99.90;;;;;;4971542;28;20546;-74
2023/10/21 13:12:24;;;;;;;1.33;1.10;;;17.60;99.90;;;;;;4973767;28;20561;-74
2023/10/21 13:14:50;;;;;;;8.40;1.80;;;17.60;99.90;;;;;;4984222;28;20518;-74
2023/10/21 13:17:17;;;;;;;2.53;1.10;;;17.60;99.90;;;;;;4963620;28;20231;-74
2023/10/21 13:19:43;;;;;;;2.17;1.00;;;17.50;99.90;;;;;;4970619;28;20469;-73
2023/10/21 13:22:09;;;;;;;2.30;1.30;;;17.50;99.90;;;;;;4964088;28;20828;-74
2023/10/21 13:24:35;;;;;;;0.70;0.70;;;17.60;99.90;;;;;;4982944;28;20253;-74
2023/10/21 13:27:01;;;;;;;1.23;1.00;;;17.50;99.90;;;;;;4968766;28;20242;-73
2023/10/21 13:29:27;;;;;;;3.67;1.20;;;17.50;99.90;;;;;;4960362;28;20595;-74
2023/10/21 13:31:53;;;;;;;0.80;0.80;;;17.40;99.90;;;;;;4977393;28;20465;-74